createdAt,value
2019-03-04T00:01:49.536Z,26.70
2019-03-04T00:04:26.619Z,26.70
2019-03-04T00:07:03.758Z,26.70
2019-03-04T00:19:59.747Z,27.20
2019-03-04T00:25:11.622Z,27.40
2019-03-04T00:27:48.591Z,27.10
2019-03-04T00:33:00.840Z,27.70
2019-03-04T00:35:38.330Z,27.50
2019-03-04T00:40:50.157Z,27.50
2019-03-04T00:43:27.375Z,27.50
2019-03-04T00:48:39.179Z,27.50
2019-03-04T00:56:26.724Z,27.70
2019-03-04T01:04:35.409Z,27.70
2019-03-04T01:07:12.569Z,27.70
2019-03-04T01:14:59.011Z,27.90
2019-03-04T01:17:36.137Z,28.10
2019-03-04T01:22:48.462Z,27.80
2019-03-04T01:25:25.895Z,28.10
2019-03-04T01:30:37.650Z,27.90
2019-03-04T01:40:58.620Z,28.00
2019-03-04T01:43:35.858Z,28.20
2019-03-04T01:56:31.591Z,28.30
2019-03-04T01:59:08.667Z,28.40
2019-03-04T02:01:45.970Z,28.00
2019-03-04T02:07:00.162Z,28.70
2019-03-04T02:09:36.537Z,28.40
2019-03-04T02:12:14.889Z,28.40
2019-03-04T02:14:52.217Z,28.50
2019-03-04T02:17:29.307Z,28.50
2019-03-04T02:20:06.435Z,28.50
2019-03-04T02:22:43.438Z,28.50
2019-03-04T02:25:22.464Z,28.70
2019-03-04T02:28:00.931Z,28.60
2019-03-04T02:30:38.015Z,28.50
2019-03-04T02:33:15.032Z,28.60
2019-03-04T02:35:52.354Z,28.80
2019-03-04T02:38:32.492Z,28.90
2019-03-04T02:41:09.647Z,28.90
2019-03-04T02:43:46.736Z,28.90
2019-03-04T02:46:23.911Z,28.90
2019-03-04T02:49:01.008Z,29.10
2019-03-04T02:51:38.375Z,29.20
2019-03-04T02:54:15.483Z,29.10
2019-03-04T02:56:52.752Z,29.10
2019-03-04T02:59:29.849Z,29.20
2019-03-04T03:02:08.091Z,29.20
2019-03-04T03:04:45.115Z,29.30
2019-03-04T03:07:22.252Z,29.50
2019-03-04T03:09:59.441Z,29.50
2019-03-04T03:12:36.512Z,29.60
2019-03-04T03:15:13.883Z,29.50
2019-03-04T03:17:51.033Z,29.50
2019-03-04T03:20:28.226Z,29.70
2019-03-04T03:23:05.331Z,29.80
2019-03-04T03:25:42.422Z,29.80
2019-03-04T03:28:19.690Z,29.60
2019-03-04T03:30:57.200Z,29.70
2019-03-04T03:33:34.252Z,29.60
2019-03-04T03:38:51.418Z,29.70
2019-03-04T03:41:28.721Z,29.60
2019-03-04T03:44:05.872Z,29.80
2019-03-04T03:49:17.749Z,30.00
2019-03-04T03:57:04.264Z,30.10
2019-03-04T03:59:41.530Z,30.10
2019-03-04T04:02:18.844Z,30.30
2019-03-04T04:04:55.919Z,30.60
2019-03-04T04:07:33.019Z,30.70
2019-03-04T04:10:10.987Z,30.90
2019-03-04T04:12:48.043Z,30.90
2019-03-04T04:15:27.538Z,30.90
2019-03-04T04:18:04.707Z,30.90
2019-03-04T04:20:41.767Z,31.00
2019-03-04T04:23:18.893Z,31.10
2019-03-04T04:25:56.345Z,30.60
2019-03-04T04:31:08.698Z,29.80
2019-03-04T04:33:45.931Z,30.30
2019-03-04T04:36:23.301Z,30.10
2019-03-04T04:52:04.070Z,29.40
2019-03-04T04:54:41.386Z,29.50
2019-03-04T04:57:18.648Z,29.60
2019-03-04T05:02:30.466Z,29.20
2019-03-04T05:44:21.720Z,29.80
2019-03-04T05:46:59.155Z,29.80
2019-03-04T05:49:36.391Z,29.40
2019-03-04T05:52:14.567Z,29.80
2019-03-04T05:54:51.701Z,29.40
2019-03-04T05:57:28.908Z,29.50
2019-03-04T06:00:06.089Z,29.70
2019-03-04T06:02:43.669Z,29.90
2019-03-04T06:05:21.242Z,30.00
2019-03-04T06:08:01.411Z,29.90
2019-03-04T06:10:38.479Z,30.00
2019-03-04T06:13:15.532Z,29.90
2019-03-04T06:15:53.611Z,29.90
2019-03-04T06:18:30.712Z,29.70
2019-03-04T06:21:09.287Z,29.60
2019-03-04T06:23:47.895Z,29.60
2019-03-04T06:26:25.409Z,29.40
2019-03-04T06:29:02.629Z,29.00
2019-03-04T06:31:40.117Z,28.60
2019-03-04T06:34:17.191Z,28.10
2019-03-04T06:39:30.107Z,27.50
2019-03-04T06:42:07.213Z,27.50
2019-03-04T06:47:18.861Z,27.60
2019-03-04T07:03:02.213Z,27.30
2019-03-04T07:05:52.677Z,27.20
2019-03-04T07:09:17.142Z,27.40
2019-03-04T07:14:31.284Z,26.90
2019-03-04T07:17:08.880Z,26.90
2019-03-04T07:19:46.767Z,26.80
2019-03-04T07:22:23.903Z,26.70
2019-03-04T07:25:01.530Z,26.60
2019-03-04T07:27:38.884Z,26.60
2019-03-04T07:30:18.336Z,26.60
2019-03-04T07:32:55.477Z,26.60
2019-03-04T07:35:32.600Z,26.50
2019-03-04T07:38:41.870Z,26.50
2019-03-04T07:41:19.173Z,26.50
2019-03-04T07:43:56.693Z,26.40
2019-03-04T07:46:33.964Z,26.40
2019-03-04T07:49:12.677Z,26.40
2019-03-04T07:51:49.893Z,26.40
2019-03-04T07:54:27.230Z,26.40
2019-03-04T07:57:05.731Z,26.40
2019-03-04T07:59:42.901Z,26.40
2019-03-04T08:02:21.447Z,26.40
2019-03-04T08:04:58.757Z,26.30
2019-03-04T08:07:50.317Z,26.20
2019-03-04T08:11:09.602Z,26.10
2019-03-04T08:13:50.485Z,26.00
2019-03-04T08:16:28.996Z,25.80
2019-03-04T08:19:08.796Z,26.20
2019-03-04T08:21:47.542Z,26.20
2019-03-04T08:24:24.969Z,25.70
2019-03-04T08:27:02.356Z,26.00
2019-03-04T08:29:39.454Z,26.20
2019-03-04T08:32:16.599Z,26.00
2019-03-04T08:34:53.750Z,25.90
2019-03-04T08:37:30.893Z,25.90
2019-03-04T08:40:13.905Z,25.90
2019-03-04T08:42:51.362Z,26.20
2019-03-04T08:45:28.509Z,26.00
2019-03-04T08:50:44.508Z,25.80
2019-03-04T08:53:21.721Z,25.50
2019-03-04T09:01:13.765Z,25.00
2019-03-04T09:03:54.318Z,25.50
2019-03-04T09:06:32.663Z,25.80
2019-03-04T09:09:11.381Z,26.00
2019-03-04T09:14:23.477Z,26.00
2019-03-04T09:17:00.634Z,25.80
2019-03-04T09:19:37.747Z,25.60
2019-03-04T09:22:15.007Z,26.00
2019-03-04T09:24:52.104Z,25.50
2019-03-04T09:27:29.574Z,25.50
2019-03-04T09:32:42.513Z,25.80
2019-03-04T09:40:30.705Z,25.50
2019-03-04T09:43:08.865Z,25.80
2019-03-04T09:48:23.215Z,25.80
2019-03-04T09:51:00.372Z,25.40
2019-03-04T09:56:15.357Z,25.30
2019-03-04T09:58:52.498Z,25.50
2019-03-04T10:10:05.461Z,25.90
2019-03-04T10:12:56.276Z,25.50
2019-03-04T10:16:18.452Z,25.30
2019-03-04T10:19:16.701Z,25.20
2019-03-04T10:22:05.160Z,24.80
2019-03-04T10:28:14.911Z,25.30
2019-03-04T10:31:27.106Z,25.10
2019-03-04T10:34:52.016Z,25.40
2019-03-04T10:37:58.727Z,25.40
2019-03-04T10:41:15.593Z,25.10
2019-03-04T10:44:48.683Z,25.10
2019-03-04T10:47:26.085Z,25.10
2019-03-04T10:50:03.184Z,25.40
2019-03-04T10:52:43.493Z,25.40
2019-03-04T10:55:20.935Z,25.20
2019-03-04T10:57:58.173Z,25.10
2019-03-04T11:00:36.427Z,25.10
2019-03-04T11:03:13.866Z,25.40
2019-03-04T11:08:25.759Z,25.10
2019-03-04T11:11:02.782Z,24.90
2019-03-04T11:13:39.974Z,25.30
2019-03-04T11:16:17.075Z,24.90
2019-03-04T11:18:54.435Z,25.20
2019-03-04T11:21:31.711Z,25.40
2019-03-04T11:24:09.575Z,25.70
2019-03-04T11:26:48.046Z,25.10
2019-03-04T11:31:59.889Z,25.10
2019-03-04T11:37:11.874Z,24.80
2019-03-04T11:39:52.452Z,24.90
2019-03-04T11:42:29.624Z,25.00
2019-03-04T11:47:41.626Z,24.80
2019-03-04T11:50:19.887Z,24.70
2019-03-04T11:52:58.615Z,24.40
2019-03-04T11:55:36.523Z,25.10
2019-03-04T11:58:13.707Z,24.50
2019-03-04T12:00:59.263Z,24.90
2019-03-04T12:03:36.257Z,24.20
2019-03-04T12:06:13.745Z,24.70
2019-03-04T12:08:51.086Z,24.50
2019-03-04T12:11:37.770Z,24.90
2019-03-04T12:16:41.283Z,24.60
2019-03-04T12:19:18.503Z,24.80
2019-03-04T12:21:55.600Z,24.50
2019-03-04T12:24:32.638Z,24.70
2019-03-04T12:27:09.997Z,24.60
2019-03-04T12:29:47.252Z,24.70
2019-03-04T12:32:29.699Z,24.70
2019-03-04T12:35:06.882Z,24.80
2019-03-04T12:37:44.096Z,25.10
2019-03-04T12:40:22.396Z,24.70
2019-03-04T12:42:59.772Z,24.50
2019-03-04T12:45:36.874Z,24.90
2019-03-04T12:50:48.726Z,24.60
2019-03-04T12:53:25.779Z,24.50
2019-03-04T12:56:02.938Z,24.60
2019-03-04T12:58:40.443Z,24.50
2019-03-04T13:01:17.665Z,24.40
2019-03-04T13:03:54.752Z,24.30
2019-03-04T13:06:31.810Z,24.80
2019-03-04T13:09:14.511Z,24.30
2019-03-04T13:11:47.726Z,24.60
2019-03-04T13:14:24.877Z,24.50
2019-03-04T13:17:01.999Z,25.20
2019-03-04T13:19:39.240Z,25.30
2019-03-04T13:22:17.253Z,24.40
2019-03-04T13:27:29.076Z,24.50
2019-03-04T13:32:40.883Z,24.40
2019-03-04T13:35:24.393Z,25.00
2019-03-04T13:37:57.764Z,24.80
2019-03-04T13:40:35.892Z,24.50
2019-03-04T13:43:13.607Z,24.00
2019-03-04T13:45:50.767Z,24.30
2019-03-04T13:48:27.809Z,24.40
2019-03-04T13:51:04.991Z,24.20
2019-03-04T13:53:42.082Z,24.30
2019-03-04T13:56:19.228Z,25.00
2019-03-04T13:58:58.102Z,24.80
2019-03-04T14:01:35.219Z,24.10
2019-03-04T14:04:13.459Z,24.30
2019-03-04T14:06:50.666Z,24.50
2019-03-04T14:09:28.116Z,24.30
2019-03-04T14:12:05.414Z,24.30
2019-03-04T14:17:17.474Z,24.30
2019-03-04T14:19:54.916Z,24.40
2019-03-04T14:22:40.076Z,24.30
2019-03-04T14:25:10.840Z,24.00
2019-03-04T14:27:48.006Z,24.40
2019-03-04T14:30:25.469Z,24.00
2019-03-04T14:33:02.631Z,24.30
2019-03-04T14:35:39.808Z,24.40
2019-03-04T14:38:17.050Z,24.20
2019-03-04T14:40:54.264Z,24.30
2019-03-04T14:46:06.826Z,23.90
2019-03-04T14:48:43.877Z,24.30
2019-03-04T14:51:21.032Z,24.40
2019-03-04T14:53:58.168Z,24.20
2019-03-04T14:56:35.221Z,24.40
2019-03-04T15:01:48.055Z,24.00
2019-03-04T15:04:25.325Z,23.90
2019-03-04T15:09:37.099Z,24.20
2019-03-04T15:12:15.503Z,24.10
2019-03-04T15:14:52.491Z,24.30
2019-03-04T15:17:36.595Z,23.80
2019-03-04T15:20:15.556Z,23.50
2019-03-04T15:22:53.241Z,24.20
2019-03-04T15:31:00.074Z,24.30
2019-03-04T15:33:38.215Z,24.10
2019-03-04T15:36:15.488Z,24.00
2019-03-04T15:38:52.683Z,24.50
2019-03-04T15:41:29.948Z,24.70
2019-03-04T15:44:07.185Z,24.00
2019-03-04T15:46:44.429Z,24.10
2019-03-04T15:49:21.552Z,24.30
2019-03-04T15:51:58.581Z,23.70
2019-03-04T15:54:35.594Z,24.50
2019-03-04T15:57:12.794Z,24.20
2019-03-04T15:59:49.895Z,23.50
2019-03-04T16:02:26.998Z,23.60
2019-03-04T16:05:04.145Z,23.70
2019-03-04T16:07:41.307Z,23.90
2019-03-04T16:10:20.822Z,23.80
2019-03-04T16:15:32.932Z,23.80
2019-03-04T16:18:10.087Z,23.90
2019-03-04T16:20:47.990Z,22.90
2019-03-04T16:23:25.254Z,23.50
2019-03-04T16:26:02.423Z,23.40
2019-03-04T16:28:39.622Z,23.40
2019-03-04T16:31:16.981Z,24.20
2019-03-04T16:33:54.910Z,23.70
2019-03-04T16:36:32.075Z,23.30
2019-03-04T16:39:09.842Z,23.90
2019-03-04T16:41:46.933Z,23.80
2019-03-04T16:46:58.666Z,23.80
2019-03-04T16:49:35.768Z,23.70
2019-03-04T16:52:14.840Z,22.80
2019-03-04T16:54:52.236Z,23.50
2019-03-04T16:57:29.471Z,23.80
2019-03-04T17:02:41.556Z,23.30
2019-03-04T17:05:20.094Z,23.30
2019-03-04T17:07:57.799Z,23.30
2019-03-04T17:10:35.025Z,23.60
2019-03-04T17:15:46.660Z,23.60
2019-03-04T17:18:23.747Z,23.20
2019-03-04T17:21:01.330Z,23.40
2019-03-04T17:23:38.503Z,23.40
2019-03-04T17:26:15.778Z,23.40
2019-03-04T17:28:52.862Z,23.40
2019-03-04T17:31:30.393Z,23.40
2019-03-04T17:34:07.583Z,23.40
2019-03-04T17:36:44.638Z,23.30
2019-03-04T17:41:57.411Z,23.50
2019-03-04T17:44:34.835Z,23.30
2019-03-04T17:47:12.014Z,23.40
2019-03-04T17:49:49.036Z,23.50
2019-03-04T17:52:26.052Z,23.40
2019-03-04T17:55:03.303Z,23.40
2019-03-04T17:57:40.562Z,23.40
2019-03-04T18:03:53.943Z,23.40
2019-03-04T18:06:30.958Z,23.40
2019-03-04T18:09:09.239Z,23.40
2019-03-04T18:11:47.639Z,23.40
2019-03-04T18:14:25.015Z,23.40
2019-03-04T18:17:02.309Z,23.30
2019-03-04T18:19:39.425Z,23.30
2019-03-04T18:22:16.564Z,23.30
2019-03-04T18:24:53.731Z,23.30
2019-03-04T18:27:34.429Z,23.30
2019-03-04T18:30:29.653Z,23.30
2019-03-04T18:33:40.998Z,23.30
2019-03-04T18:37:08.031Z,23.20
2019-03-04T18:40:09.215Z,23.30
2019-03-04T18:42:54.530Z,23.30
2019-03-04T18:45:51.219Z,23.30
2019-03-04T18:48:55.271Z,23.30
2019-03-04T18:51:37.106Z,23.30
2019-03-04T18:54:25.155Z,23.30
2019-03-04T18:57:02.366Z,23.40
2019-03-04T18:59:39.378Z,23.40
2019-03-04T19:02:16.659Z,23.40
2019-03-04T19:04:53.942Z,23.30
2019-03-04T19:07:31.377Z,23.30
2019-03-04T19:10:08.566Z,23.10
2019-03-04T19:12:45.700Z,23.30
2019-03-04T19:15:22.938Z,23.30
2019-03-04T19:17:59.970Z,23.30
2019-03-04T19:20:37.162Z,23.30
2019-03-04T19:23:14.343Z,23.30
2019-03-04T19:25:51.550Z,23.30
2019-03-04T19:28:28.652Z,23.40
2019-03-04T19:31:05.871Z,23.40
2019-03-04T19:33:43.027Z,23.40
2019-03-04T19:36:20.538Z,23.30
2019-03-04T19:38:57.683Z,23.00
2019-03-04T19:41:34.754Z,23.20
2019-03-04T19:44:12.354Z,23.30
2019-03-04T19:46:49.745Z,23.30
2019-03-04T19:49:26.816Z,23.00
2019-03-04T19:52:04.092Z,23.30
2019-03-04T19:54:41.481Z,23.30
2019-03-04T19:57:19.134Z,23.20
2019-03-04T19:59:56.818Z,23.20
2019-03-04T20:02:33.834Z,23.20
2019-03-04T20:05:11.373Z,23.30
2019-03-04T20:07:48.586Z,23.20
2019-03-04T20:10:26.214Z,23.20
2019-03-04T20:13:03.628Z,23.30
2019-03-04T20:15:40.749Z,23.20
2019-03-04T20:18:17.993Z,23.10
2019-03-04T20:20:56.716Z,23.10
2019-03-04T20:23:33.876Z,23.10
2019-03-04T20:26:11.202Z,23.10
2019-03-04T20:28:48.608Z,23.20
2019-03-04T20:31:26.436Z,23.80
2019-03-04T20:34:03.520Z,23.00
2019-03-04T20:36:42.389Z,23.10
2019-03-04T20:39:20.106Z,23.00
2019-03-04T20:41:57.567Z,23.00
2019-03-04T20:44:34.729Z,23.10
2019-03-04T20:47:12.000Z,22.50
2019-03-04T20:49:49.059Z,23.10
2019-03-04T20:52:26.378Z,23.10
2019-03-04T20:55:03.794Z,23.20
2019-03-04T20:57:41.271Z,23.30
2019-03-04T21:00:21.429Z,23.30
2019-03-04T21:02:58.825Z,23.30
2019-03-04T21:05:36.061Z,23.20
2019-03-04T21:08:13.691Z,23.40
2019-03-04T21:10:51.192Z,23.40
2019-03-04T21:13:35.019Z,23.30
2019-03-04T21:16:07.262Z,23.40
2019-03-04T21:18:44.372Z,23.50
2019-03-04T21:21:21.859Z,23.40
2019-03-04T21:23:59.035Z,23.40
2019-03-04T21:26:45.431Z,23.50
2019-03-04T21:29:54.180Z,23.40
2019-03-04T21:33:00.298Z,23.40
2019-03-04T21:36:16.771Z,23.60
2019-03-04T21:38:54.713Z,23.50
2019-03-04T21:41:56.850Z,23.50
2019-03-04T21:45:16.933Z,23.60
2019-03-04T21:48:07.399Z,23.60
2019-03-04T21:51:11.393Z,23.50
2019-03-04T21:53:51.006Z,23.60
2019-03-04T21:57:04.574Z,23.60
2019-03-04T21:59:42.399Z,23.60
2019-03-04T22:02:27.756Z,23.70
2019-03-04T22:05:06.327Z,23.70
2019-03-04T22:07:43.455Z,23.80
2019-03-04T22:10:20.851Z,23.80
2019-03-04T22:12:58.130Z,23.80
2019-03-04T22:15:36.427Z,23.80
2019-03-04T22:18:14.228Z,23.90
2019-03-04T22:20:51.418Z,23.90
2019-03-04T22:23:28.678Z,23.90
2019-03-04T22:26:05.840Z,23.90
2019-03-04T22:28:42.961Z,23.90
2019-03-04T22:31:20.138Z,24.00
2019-03-04T22:34:07.735Z,24.10
2019-03-04T22:36:38.639Z,24.10
2019-03-04T22:39:15.790Z,24.20
2019-03-04T22:41:57.146Z,24.10
2019-03-04T22:44:34.906Z,24.10
2019-03-04T22:47:11.998Z,24.10
2019-03-04T22:49:49.213Z,24.10
2019-03-04T22:52:45.989Z,24.30
2019-03-04T22:55:49.149Z,24.30
2019-03-04T22:58:28.823Z,24.40
2019-03-04T23:01:42.624Z,24.00
2019-03-04T23:04:27.698Z,24.50
2019-03-04T23:07:32.422Z,24.60
2019-03-04T23:10:25.236Z,24.60
2019-03-04T23:13:21.116Z,24.80
2019-03-04T23:15:59.270Z,24.80
2019-03-04T23:18:36.408Z,25.60
2019-03-04T23:21:13.599Z,25.70
2019-03-04T23:23:50.765Z,25.20
2019-03-04T23:26:28.022Z,25.20
2019-03-04T23:29:05.117Z,25.10
2019-03-04T23:31:42.131Z,25.10
2019-03-04T23:34:19.319Z,25.30
2019-03-04T23:39:31.132Z,25.50
2019-03-04T23:42:08.215Z,25.10
2019-03-04T23:50:08.159Z,26.00
2019-03-04T23:52:45.572Z,26.00
2019-03-04T23:57:57.460Z,26.50
